sensor_id;sensor_type;location;lat;lon;timestamp;pressure;altitude;pressure_sealevel;temperature;humidity
18201;BME280;9226;47.858;9.594;2023-04-26T00:01:12;95132.50;;;8.73;76.66
18201;BME280;9226;47.858;9.594;2023-04-26T00:03:39;95135.53;;;8.68;77.15
18201;BME280;9226;47.858;9.594;2023-04-26T00:06:05;95136.81;;;8.74;76.39
18201;BME280;9226;47.858;9.594;2023-04-26T00:08:36;95143.22;;;8.72;76.60
18201;BME280;9226;47.858;9.594;2023-04-26T00:11:02;95143.09;;;8.73;76.10
18201;BME280;9226;47.858;9.594;2023-04-26T00:13:27;95144.03;;;8.72;76.24
18201;BME280;9226;47.858;9.594;2023-04-26T00:15:53;95151.63;;;8.65;76.57
18201;BME280;9226;47.858;9.594;2023-04-26T00:18:18;95146.34;;;8.65;76.27
18201;BME280;9226;47.858;9.594;2023-04-26T00:20:43;95156.16;;;8.52;78.06
18201;BME280;9226;47.858;9.594;2023-04-26T00:23:09;95153.66;;;8.50;77.54
18201;BME280;9226;47.858;9.594;2023-04-26T00:25:35;95155.56;;;8.48;77.69
18201;BME280;9226;47.858;9.594;2023-04-26T00:28:01;95156.25;;;8.39;78.18
18201;BME280;9226;47.858;9.594;2023-04-26T00:30:26;95156.13;;;8.29;78.17
18201;BME280;9226;47.858;9.594;2023-04-26T00:32:52;95154.19;;;8.20;78.47
18201;BME280;9226;47.858;9.594;2023-04-26T00:35:18;95161.75;;;8.13;79.08
18201;BME280;9226;47.858;9.594;2023-04-26T00:37:43;95163.31;;;8.16;78.84
18201;BME280;9226;47.858;9.594;2023-04-26T00:40:09;95159.22;;;8.12;78.64
18201;BME280;9226;47.858;9.594;2023-04-26T00:42:36;95169.41;;;8.05;78.64
18201;BME280;9226;47.858;9.594;2023-04-26T00:45:02;95163.03;;;8.08;78.29
18201;BME280;9226;47.858;9.594;2023-04-26T00:47:28;95166.03;;;8.03;78.24
18201;BME280;9226;47.858;9.594;2023-04-26T00:49:54;95169.16;;;7.97;78.44
18201;BME280;9226;47.858;9.594;2023-04-26T00:52:20;95170.38;;;8.04;77.79
18201;BME280;9226;47.858;9.594;2023-04-26T00:54:48;95176.38;;;8.06;78.19
18201;BME280;9226;47.858;9.594;2023-04-26T00:57:13;95169.31;;;8.07;77.64
18201;BME280;9226;47.858;9.594;2023-04-26T00:59:39;95167.84;;;8.03;78.40
18201;BME280;9226;47.858;9.594;2023-04-26T01:02:05;95161.50;;;8.05;78.20
18201;BME280;9226;47.858;9.594;2023-04-26T01:04:31;95175.78;;;8.14;77.51
18201;BME280;9226;47.858;9.594;2023-04-26T01:06:58;95174.97;;;8.13;77.70
18201;BME280;9226;47.858;9.594;2023-04-26T01:09:23;95175.41;;;8.07;77.95
18201;BME280;9226;47.858;9.594;2023-04-26T01:11:49;95182.28;;;8.10;77.86
18201;BME280;9226;47.858;9.594;2023-04-26T01:14:16;95182.06;;;8.13;77.38
18201;BME280;9226;47.858;9.594;2023-04-26T01:16:42;95172.53;;;8.10;78.02
18201;BME280;9226;47.858;9.594;2023-04-26T01:19:12;95174.00;;;8.14;77.33
18201;BME280;9226;47.858;9.594;2023-04-26T01:21:38;95177.81;;;8.10;77.48
18201;BME280;9226;47.858;9.594;2023-04-26T01:24:04;95177.81;;;8.10;77.25
18201;BME280;9226;47.858;9.594;2023-04-26T01:26:30;95179.41;;;8.13;77.40
18201;BME280;9226;47.858;9.594;2023-04-26T01:28:57;95172.53;;;8.10;77.18
18201;BME280;9226;47.858;9.594;2023-04-26T01:31:22;95173.97;;;8.03;78.20
18201;BME280;9226;47.858;9.594;2023-04-26T01:33:48;95174.94;;;8.02;77.78
18201;BME280;9226;47.858;9.594;2023-04-26T01:36:13;95181.88;;;8.03;77.71
18201;BME280;9226;47.858;9.594;2023-04-26T01:38:39;95176.38;;;8.06;77.25
18201;BME280;9226;47.858;9.594;2023-04-26T01:41:04;95180.22;;;8.02;77.82
18201;BME280;9226;47.858;9.594;2023-04-26T01:43:30;95174.56;;;7.95;78.25
18201;BME280;9226;47.858;9.594;2023-04-26T01:45:55;95173.91;;;7.92;78.47
18201;BME280;9226;47.858;9.594;2023-04-26T01:48:20;95173.31;;;7.88;79.05
18201;BME280;9226;47.858;9.594;2023-04-26T01:50:46;95180.22;;;8.02;77.56
18201;BME280;9226;47.858;9.594;2023-04-26T01:53:11;95177.91;;;7.97;77.64
18201;BME280;9226;47.858;9.594;2023-04-26T01:55:37;95172.03;;;7.94;77.82
18201;BME280;9226;47.858;9.594;2023-04-26T01:58:02;95175.88;;;8.01;77.32
18201;BME280;9226;47.858;9.594;2023-04-26T02:00:28;95178.75;;;7.98;77.68
18201;BME280;9226;47.858;9.594;2023-04-26T02:02:55;95173.59;;;7.96;78.09
18201;BME280;9226;47.858;9.594;2023-04-26T02:05:20;95177.81;;;7.99;77.67
18201;BME280;9226;47.858;9.594;2023-04-26T02:07:46;95174.44;;;7.97;77.86
18201;BME280;9226;47.858;9.594;2023-04-26T02:10:11;95182.25;;;7.99;77.92
18201;BME280;9226;47.858;9.594;2023-04-26T02:12:37;95170.72;;;8.00;77.70
18201;BME280;9226;47.858;9.594;2023-04-26T02:15:03;95165.06;;;7.93;77.96
18201;BME280;9226;47.858;9.594;2023-04-26T02:17:29;95168.41;;;7.95;77.95
18201;BME280;9226;47.858;9.594;2023-04-26T02:19:54;95175.38;;;7.96;77.94
18201;BME280;9226;47.858;9.594;2023-04-26T02:22:21;95166.63;;;7.95;77.80
18201;BME280;9226;47.858;9.594;2023-04-26T02:24:49;95162.19;;;7.96;77.92
18201;BME280;9226;47.858;9.594;2023-04-26T02:27:14;95165.88;;;7.93;78.26
18201;BME280;9226;47.858;9.594;2023-04-26T02:29:39;95161.47;;;7.94;78.15
18201;BME280;9226;47.858;9.594;2023-04-26T02:32:05;95165.88;;;7.93;78.03
18201;BME280;9226;47.858;9.594;2023-04-26T02:34:31;95163.94;;;7.84;78.20
18201;BME280;9226;47.858;9.594;2023-04-26T02:36:57;95162.66;;;7.90;77.34
18201;BME280;9226;47.858;9.594;2023-04-26T02:39:22;95154.50;;;7.93;77.15
18201;BME280;9226;47.858;9.594;2023-04-26T02:41:47;95160.59;;;7.93;77.06
18201;BME280;9226;47.858;9.594;2023-04-26T02:44:13;95156.00;;;7.84;77.74
18201;BME280;9226;47.858;9.594;2023-04-26T02:46:38;95151.34;;;7.88;77.27
18201;BME280;9226;47.858;9.594;2023-04-26T02:49:04;95149.88;;;7.84;77.18
18201;BME280;9226;47.858;9.594;2023-04-26T02:51:30;95160.69;;;7.81;77.19
18201;BME280;9226;47.858;9.594;2023-04-26T02:53:56;95153.97;;;7.76;77.45
18201;BME280;9226;47.858;9.594;2023-04-26T02:56:22;95160.31;;;7.74;78.27
18201;BME280;9226;47.858;9.594;2023-04-26T02:58:47;95153.97;;;7.76;77.97
18201;BME280;9226;47.858;9.594;2023-04-26T03:01:12;95158.38;;;7.76;78.28
18201;BME280;9226;47.858;9.594;2023-04-26T03:03:39;95152.88;;;7.79;78.06
18201;BME280;9226;47.858;9.594;2023-04-26T03:06:04;95160.69;;;7.81;77.75
18201;BME280;9226;47.858;9.594;2023-04-26T03:08:30;95156.72;;;7.75;78.26
18201;BME280;9226;47.858;9.594;2023-04-26T03:10:55;95158.59;;;7.73;78.50
18201;BME280;9226;47.858;9.594;2023-04-26T03:13:23;95141.00;;;7.73;77.41
18201;BME280;9226;47.858;9.594;2023-04-26T03:15:49;95140.25;;;7.71;76.98
18201;BME280;9226;47.858;9.594;2023-04-26T03:18:16;95154.13;;;7.62;76.98
18201;BME280;9226;47.858;9.594;2023-04-26T03:20:42;95151.97;;;7.56;77.31
18201;BME280;9226;47.858;9.594;2023-04-26T03:23:07;95142.25;;;7.56;76.82
18201;BME280;9226;47.858;9.594;2023-04-26T03:25:33;95147.84;;;7.52;76.54
18201;BME280;9226;47.858;9.594;2023-04-26T03:27:58;95155.28;;;7.47;76.40
18201;BME280;9226;47.858;9.594;2023-04-26T03:30:24;95148.25;;;7.34;76.68
18201;BME280;9226;47.858;9.594;2023-04-26T03:32:50;95147.66;;;7.31;76.47
18201;BME280;9226;47.858;9.594;2023-04-26T03:35:16;95153.59;;;7.21;76.86
18201;BME280;9226;47.858;9.594;2023-04-26T03:37:41;95157.22;;;7.07;77.56
18201;BME280;9226;47.858;9.594;2023-04-26T03:40:08;95155.75;;;7.03;77.43
18201;BME280;9226;47.858;9.594;2023-04-26T03:42:34;95165.78;;;6.98;77.04
18201;BME280;9226;47.858;9.594;2023-04-26T03:45:00;95159.19;;;6.93;77.02
18201;BME280;9226;47.858;9.594;2023-04-26T03:47:28;95153.78;;;6.81;77.36
18201;BME280;9226;47.858;9.594;2023-04-26T03:49:53;95154.88;;;6.79;76.92
18201;BME280;9226;47.858;9.594;2023-04-26T03:52:19;95154.13;;;6.77;76.69
18201;BME280;9226;47.858;9.594;2023-04-26T03:54:44;95155.75;;;6.66;77.26
18201;BME280;9226;47.858;9.594;2023-04-26T03:57:10;95152.69;;;6.60;77.33
18201;BME280;9226;47.858;9.594;2023-04-26T03:59:35;95150.38;;;6.55;77.24
18201;BME280;9226;47.858;9.594;2023-04-26T04:02:01;95152.25;;;6.53;76.95
18201;BME280;9226;47.858;9.594;2023-04-26T04:04:26;95154.38;;;6.48;76.93
18201;BME280;9226;47.858;9.594;2023-04-26T04:06:53;95155.66;;;6.42;77.61
18201;BME280;9226;47.858;9.594;2023-04-26T04:09:18;95158.50;;;6.39;77.54
18201;BME280;9226;47.858;9.594;2023-04-26T04:11:43;95162.41;;;6.33;78.31
18201;BME280;9226;47.858;9.594;2023-04-26T04:14:09;95157.34;;;6.30;78.69
18201;BME280;9226;47.858;9.594;2023-04-26T04:16:35;95167.66;;;6.33;78.76
18201;BME280;9226;47.858;9.594;2023-04-26T04:19:00;95162.91;;;6.39;79.27
18201;BME280;9226;47.858;9.594;2023-04-26T04:21:25;95161.56;;;6.46;78.83
18201;BME280;9226;47.858;9.594;2023-04-26T04:23:51;95152.50;;;6.50;79.03
18201;BME280;9226;47.858;9.594;2023-04-26T04:26:17;95151.41;;;6.52;79.70
18201;BME280;9226;47.858;9.594;2023-04-26T04:28:43;95158.25;;;6.68;78.37
18201;BME280;9226;47.858;9.594;2023-04-26T04:31:09;95159.84;;;6.70;79.15
18201;BME280;9226;47.858;9.594;2023-04-26T04:33:35;95152.34;;;6.77;78.86
18201;BME280;9226;47.858;9.594;2023-04-26T04:36:00;95157.50;;;6.79;79.43
18201;BME280;9226;47.858;9.594;2023-04-26T04:38:26;95150.84;;;6.86;79.13
18201;BME280;9226;47.858;9.594;2023-04-26T04:40:51;95157.91;;;6.85;79.84
18201;BME280;9226;47.858;9.594;2023-04-26T04:43:17;95161.69;;;6.94;79.52
18201;BME280;9226;47.858;9.594;2023-04-26T04:45:43;95160.72;;;6.95;79.90
18201;BME280;9226;47.858;9.594;2023-04-26T04:48:09;95172.00;;;6.97;80.56
18201;BME280;9226;47.858;9.594;2023-04-26T04:50:35;95163.31;;;7.08;79.72
18201;BME280;9226;47.858;9.594;2023-04-26T04:53:01;95172.50;;;7.15;79.70
18201;BME280;9226;47.858;9.594;2023-04-26T04:55:26;95165.81;;;7.22;79.20
18201;BME280;9226;47.858;9.594;2023-04-26T04:57:52;95163.28;;;7.21;80.05
18201;BME280;9226;47.858;9.594;2023-04-26T05:00:18;95162.84;;;7.27;79.35
18201;BME280;9226;47.858;9.594;2023-04-26T05:02:44;95166.00;;;7.32;79.11
18201;BME280;9226;47.858;9.594;2023-04-26T05:05:10;95165.47;;;7.27;78.84
18201;BME280;9226;47.858;9.594;2023-04-26T05:07:35;95164.53;;;7.28;78.52
18201;BME280;9226;47.858;9.594;2023-04-26T05:10:01;95164.81;;;7.36;78.15
18201;BME280;9226;47.858;9.594;2023-04-26T05:12:27;95173.34;;;7.40;78.79
18201;BME280;9226;47.858;9.594;2023-04-26T05:14:52;95174.59;;;7.47;78.22
18201;BME280;9226;47.858;9.594;2023-04-26T05:17:18;95171.72;;;7.50;77.73
18201;BME280;9226;47.858;9.594;2023-04-26T05:19:43;95170.56;;;7.54;77.48
18201;BME280;9226;47.858;9.594;2023-04-26T05:22:09;95176.22;;;7.61;77.41
18201;BME280;9226;47.858;9.594;2023-04-26T05:24:35;95171.09;;;7.71;76.79
18201;BME280;9226;47.858;9.594;2023-04-26T05:27:01;95172.34;;;7.78;76.30
18201;BME280;9226;47.858;9.594;2023-04-26T05:29:31;95177.03;;;7.86;76.24
18201;BME280;9226;47.858;9.594;2023-04-26T05:31:57;95176.69;;;7.90;76.43
18201;BME280;9226;47.858;9.594;2023-04-26T05:34:23;95186.34;;;8.03;76.47
18201;BME280;9226;47.858;9.594;2023-04-26T05:36:49;95181.81;;;8.16;76.50
18201;BME280;9226;47.858;9.594;2023-04-26T05:39:16;95183.63;;;8.27;76.29
18201;BME280;9226;47.858;9.594;2023-04-26T05:41:43;95185.56;;;8.25;76.41
18201;BME280;9226;47.858;9.594;2023-04-26T05:44:09;95185.59;;;8.47;76.05
18201;BME280;9226;47.858;9.594;2023-04-26T05:46:34;95179.72;;;8.44;75.71
18201;BME280;9226;47.858;9.594;2023-04-26T05:49:00;95194.88;;;8.53;75.54
18201;BME280;9226;47.858;9.594;2023-04-26T05:51:25;95187.31;;;8.71;74.95
18201;BME280;9226;47.858;9.594;2023-04-26T05:53:50;95193.09;;;8.87;74.31
18201;BME280;9226;47.858;9.594;2023-04-26T05:56:16;95195.16;;;8.95;73.50
18201;BME280;9226;47.858;9.594;2023-04-26T05:58:41;95192.38;;;9.08;74.54
18201;BME280;9226;47.858;9.594;2023-04-26T06:01:07;95203.03;;;9.84;78.22
18201;BME280;9226;47.858;9.594;2023-04-26T06:03:33;95194.72;;;10.42;75.19
18201;BME280;9226;47.858;9.594;2023-04-26T06:05:59;95195.78;;;11.22;69.74
18201;BME280;9226;47.858;9.594;2023-04-26T06:08:24;95189.22;;;12.36;65.16
18201;BME280;9226;47.858;9.594;2023-04-26T06:10:52;95199.88;;;13.40;64.18
18201;BME280;9226;47.858;9.594;2023-04-26T06:13:17;95194.13;;;14.53;62.95
18201;BME280;9226;47.858;9.594;2023-04-26T06:15:43;95188.97;;;15.04;56.80
18201;BME280;9226;47.858;9.594;2023-04-26T06:18:08;95192.34;;;15.40;54.88
18201;BME280;9226;47.858;9.594;2023-04-26T06:20:34;95202.22;;;15.48;53.28
18201;BME280;9226;47.858;9.594;2023-04-26T06:23:00;95202.34;;;15.38;52.08
18201;BME280;9226;47.858;9.594;2023-04-26T06:25:25;95199.66;;;15.04;51.45
18201;BME280;9226;47.858;9.594;2023-04-26T06:27:51;95201.34;;;14.78;52.90
18201;BME280;9226;47.858;9.594;2023-04-26T06:30:16;95198.03;;;14.40;54.44
18201;BME280;9226;47.858;9.594;2023-04-26T06:32:41;95209.88;;;14.20;54.97
18201;BME280;9226;47.858;9.594;2023-04-26T06:35:07;95210.41;;;14.41;54.92
18201;BME280;9226;47.858;9.594;2023-04-26T06:37:33;95204.22;;;14.05;55.27
18201;BME280;9226;47.858;9.594;2023-04-26T06:39:59;95208.94;;;13.75;56.43
18201;BME280;9226;47.858;9.594;2023-04-26T06:42:26;95215.34;;;13.27;57.29
18201;BME280;9226;47.858;9.594;2023-04-26T06:44:51;95206.03;;;13.03;57.99
18201;BME280;9226;47.858;9.594;2023-04-26T06:47:16;95206.19;;;12.92;58.40
18201;BME280;9226;47.858;9.594;2023-04-26T06:49:42;95208.06;;;12.81;58.25
18201;BME280;9226;47.858;9.594;2023-04-26T06:52:07;95215.63;;;12.76;58.57
18201;BME280;9226;47.858;9.594;2023-04-26T06:54:33;95217.03;;;12.71;58.76
18201;BME280;9226;47.858;9.594;2023-04-26T06:56:58;95214.13;;;12.54;58.97
18201;BME280;9226;47.858;9.594;2023-04-26T06:59:23;95219.75;;;12.41;60.11
18201;BME280;9226;47.858;9.594;2023-04-26T07:01:50;95220.97;;;12.57;59.80
18201;BME280;9226;47.858;9.594;2023-04-26T07:04:15;95219.84;;;12.69;59.74
18201;BME280;9226;47.858;9.594;2023-04-26T07:06:42;95221.78;;;12.77;59.36
18201;BME280;9226;47.858;9.594;2023-04-26T07:09:08;95221.69;;;12.59;59.50
18201;BME280;9226;47.858;9.594;2023-04-26T07:11:33;95209.06;;;12.61;59.28
18201;BME280;9226;47.858;9.594;2023-04-26T07:13:59;95214.13;;;12.64;59.07
18201;BME280;9226;47.858;9.594;2023-04-26T07:16:25;95211.06;;;12.59;58.23
18201;BME280;9226;47.858;9.594;2023-04-26T07:18:51;95211.34;;;12.56;58.76
18201;BME280;9226;47.858;9.594;2023-04-26T07:21:22;95208.97;;;12.53;58.33
18201;BME280;9226;47.858;9.594;2023-04-26T07:23:51;95206.25;;;12.72;59.07
18201;BME280;9226;47.858;9.594;2023-04-26T07:26:17;95203.38;;;12.93;59.12
18201;BME280;9226;47.858;9.594;2023-04-26T07:28:42;95212.22;;;12.94;58.96
18201;BME280;9226;47.858;9.594;2023-04-26T07:31:07;95217.56;;;12.94;57.47
18201;BME280;9226;47.858;9.594;2023-04-26T07:33:33;95214.41;;;13.08;56.64
18201;BME280;9226;47.858;9.594;2023-04-26T07:35:58;95209.81;;;13.00;56.22
18201;BME280;9226;47.858;9.594;2023-04-26T07:38:25;95206.66;;;12.77;56.50
18201;BME280;9226;47.858;9.594;2023-04-26T07:40:51;95193.31;;;12.97;56.94
18201;BME280;9226;47.858;9.594;2023-04-26T07:43:17;95202.38;;;13.04;56.67
18201;BME280;9226;47.858;9.594;2023-04-26T07:45:43;95205.31;;;13.01;57.10
18201;BME280;9226;47.858;9.594;2023-04-26T07:48:09;95213.63;;;12.88;56.67
18201;BME280;9226;47.858;9.594;2023-04-26T07:50:34;95199.16;;;13.28;56.46
18201;BME280;9226;47.858;9.594;2023-04-26T07:53:00;95204.56;;;13.18;55.63
18201;BME280;9226;47.858;9.594;2023-04-26T07:55:26;95202.53;;;13.68;55.36
18201;BME280;9226;47.858;9.594;2023-04-26T07:57:51;95204.47;;;13.93;54.83
18201;BME280;9226;47.858;9.594;2023-04-26T08:00:17;95202.16;;;13.81;52.47
18201;BME280;9226;47.858;9.594;2023-04-26T08:02:43;95199.78;;;14.14;53.20
18201;BME280;9226;47.858;9.594;2023-04-26T08:05:10;95203.84;;;14.18;51.71
18201;BME280;9226;47.858;9.594;2023-04-26T08:07:37;95200.34;;;14.35;50.86
18201;BME280;9226;47.858;9.594;2023-04-26T08:10:02;95198.97;;;14.13;51.41
18201;BME280;9226;47.858;9.594;2023-04-26T08:12:27;95199.19;;;14.38;51.76
18201;BME280;9226;47.858;9.594;2023-04-26T08:14:53;95199.19;;;14.20;50.30
18201;BME280;9226;47.858;9.594;2023-04-26T08:17:18;95200.19;;;14.37;50.95
18201;BME280;9226;47.858;9.594;2023-04-26T08:19:43;95201.47;;;14.51;51.21
18201;BME280;9226;47.858;9.594;2023-04-26T08:22:09;95197.50;;;14.37;51.90
18201;BME280;9226;47.858;9.594;2023-04-26T08:24:34;95202.16;;;14.17;51.88
18201;BME280;9226;47.858;9.594;2023-04-26T08:27:00;95203.94;;;14.08;51.50
18201;BME280;9226;47.858;9.594;2023-04-26T08:29:25;95195.56;;;14.03;50.16
18201;BME280;9226;47.858;9.594;2023-04-26T08:31:51;95198.66;;;14.16;49.25
18201;BME280;9226;47.858;9.594;2023-04-26T08:34:17;95205.75;;;14.25;50.14
18201;BME280;9226;47.858;9.594;2023-04-26T08:36:43;95197.19;;;14.40;50.43
18201;BME280;9226;47.858;9.594;2023-04-26T08:39:09;95194.81;;;14.73;50.55
18201;BME280;9226;47.858;9.594;2023-04-26T08:41:41;95196.25;;;14.85;49.73
18201;BME280;9226;47.858;9.594;2023-04-26T08:44:08;95199.63;;;14.95;50.12
18201;BME280;9226;47.858;9.594;2023-04-26T08:46:52;95196.06;;;15.13;49.14
18201;BME280;9226;47.858;9.594;2023-04-26T08:49:40;95197.47;;;15.25;49.29
18201;BME280;9226;47.858;9.594;2023-04-26T08:52:14;95198.06;;;15.11;47.87
18201;BME280;9226;47.858;9.594;2023-04-26T08:54:41;95200.88;;;15.09;48.80
18201;BME280;9226;47.858;9.594;2023-04-26T08:57:07;95207.44;;;15.15;48.95
18201;BME280;9226;47.858;9.594;2023-04-26T08:59:37;95206.38;;;15.08;47.73
18201;BME280;9226;47.858;9.594;2023-04-26T09:02:06;95217.28;;;14.88;47.00
18201;BME280;9226;47.858;9.594;2023-04-26T09:04:32;95206.16;;;14.75;46.88
18201;BME280;9226;47.858;9.594;2023-04-26T09:07:00;95207.59;;;14.87;47.00
18201;BME280;9226;47.858;9.594;2023-04-26T09:09:26;95213.25;;;14.84;47.62
18201;BME280;9226;47.858;9.594;2023-04-26T09:11:57;95213.34;;;14.56;47.05
18201;BME280;9226;47.858;9.594;2023-04-26T09:14:24;95210.16;;;14.71;47.75
18201;BME280;9226;47.858;9.594;2023-04-26T09:16:49;95204.69;;;15.07;47.44
18201;BME280;9226;47.858;9.594;2023-04-26T09:19:16;95209.53;;;15.03;45.80
18201;BME280;9226;47.858;9.594;2023-04-26T09:21:43;95205.84;;;15.38;45.50
18201;BME280;9226;47.858;9.594;2023-04-26T09:24:09;95202.97;;;15.66;45.02
18201;BME280;9226;47.858;9.594;2023-04-26T09:26:35;95204.06;;;15.82;45.64
18201;BME280;9226;47.858;9.594;2023-04-26T09:29:15;95208.13;;;15.94;43.86
18201;BME280;9226;47.858;9.594;2023-04-26T09:31:51;95207.56;;;15.90;43.79
18201;BME280;9226;47.858;9.594;2023-04-26T09:34:16;95209.44;;;15.90;44.33
18201;BME280;9226;47.858;9.594;2023-04-26T09:36:46;95197.75;;;15.99;46.47
18201;BME280;9226;47.858;9.594;2023-04-26T09:39:11;95199.47;;;16.41;45.80
18201;BME280;9226;47.858;9.594;2023-04-26T09:41:43;95197.78;;;16.98;44.73
18201;BME280;9226;47.858;9.594;2023-04-26T09:44:22;95196.38;;;17.27;42.21
18201;BME280;9226;47.858;9.594;2023-04-26T09:47:08;95188.38;;;17.66;41.21
18201;BME280;9226;47.858;9.594;2023-04-26T09:49:49;95190.66;;;17.78;40.26
18201;BME280;9226;47.858;9.594;2023-04-26T09:52:18;95185.31;;;17.22;39.47
18201;BME280;9226;47.858;9.594;2023-04-26T09:54:47;95179.75;;;17.40;39.60
18201;BME280;9226;47.858;9.594;2023-04-26T09:57:14;95190.69;;;17.22;39.21
18201;BME280;9226;47.858;9.594;2023-04-26T09:59:45;95190.44;;;16.34;38.57
18201;BME280;9226;47.858;9.594;2023-04-26T10:02:17;95189.75;;;16.73;40.11
18201;BME280;9226;47.858;9.594;2023-04-26T10:04:44;95187.22;;;16.80;40.51
18201;BME280;9226;47.858;9.594;2023-04-26T10:07:14;95183.03;;;16.77;40.47
18201;BME280;9226;47.858;9.594;2023-04-26T10:09:41;95195.78;;;16.92;41.03
18201;BME280;9226;47.858;9.594;2023-04-26T10:12:11;95187.22;;;17.05;41.53
18201;BME280;9226;47.858;9.594;2023-04-26T10:14:37;95184.91;;;17.02;41.50
18201;BME280;9226;47.858;9.594;2023-04-26T10:17:03;95183.03;;;17.02;42.20
18201;BME280;9226;47.858;9.594;2023-04-26T10:19:29;95181.34;;;17.01;41.96
18201;BME280;9226;47.858;9.594;2023-04-26T10:22:01;95185.88;;;17.00;42.83
18201;BME280;9226;47.858;9.594;2023-04-26T10:24:28;95181.56;;;17.39;40.79
18201;BME280;9226;47.858;9.594;2023-04-26T10:26:54;95171.97;;;17.53;40.25
18201;BME280;9226;47.858;9.594;2023-04-26T10:29:24;95172.84;;;17.45;38.94
18201;BME280;9226;47.858;9.594;2023-04-26T10:34:34;95162.66;;;17.72;39.44
18201;BME280;9226;47.858;9.594;2023-04-26T10:39:36;95158.31;;;16.59;39.75
18201;BME280;9226;47.858;9.594;2023-04-26T10:44:49;95160.31;;;16.40;40.02
18201;BME280;9226;47.858;9.594;2023-04-26T10:49:50;95157.13;;;16.53;40.78
18201;BME280;9226;47.858;9.594;2023-04-26T10:52:19;95149.25;;;16.60;40.62
18201;BME280;9226;47.858;9.594;2023-04-26T10:54:56;95157.25;;;16.85;40.75
18201;BME280;9226;47.858;9.594;2023-04-26T10:57:24;95149.59;;;16.57;41.03
18201;BME280;9226;47.858;9.594;2023-04-26T11:03:02;95158.44;;;16.49;40.82
18201;BME280;9226;47.858;9.594;2023-04-26T11:05:46;95146.72;;;16.58;40.91
18201;BME280;9226;47.858;9.594;2023-04-26T11:10:50;95152.25;;;16.65;39.82
18201;BME280;9226;47.858;9.594;2023-04-26T11:13:16;95145.69;;;16.76;38.99
18201;BME280;9226;47.858;9.594;2023-04-26T11:15:43;95141.84;;;16.95;39.51
18201;BME280;9226;47.858;9.594;2023-04-26T11:18:09;95139.66;;;17.07;39.73
18201;BME280;9226;47.858;9.594;2023-04-26T11:20:34;95146.66;;;17.08;40.03
18201;BME280;9226;47.858;9.594;2023-04-26T11:23:00;95133.34;;;16.75;38.53
18201;BME280;9226;47.858;9.594;2023-04-26T11:25:28;95132.31;;;16.84;39.67
18201;BME280;9226;47.858;9.594;2023-04-26T11:28:01;95132.81;;;16.96;38.72
18201;BME280;9226;47.858;9.594;2023-04-26T11:30:28;95131.06;;;17.20;39.96
18201;BME280;9226;47.858;9.594;2023-04-26T11:32:54;95122.22;;;17.42;38.38
18201;BME280;9226;47.858;9.594;2023-04-26T11:35:23;95126.66;;;18.21;38.37
18201;BME280;9226;47.858;9.594;2023-04-26T11:37:50;95120.19;;;18.83;37.92
18201;BME280;9226;47.858;9.594;2023-04-26T11:40:16;95114.78;;;19.36;36.06
18201;BME280;9226;47.858;9.594;2023-04-26T11:42:44;95105.16;;;19.63;34.62
18201;BME280;9226;47.858;9.594;2023-04-26T11:45:10;95114.88;;;20.16;35.05
18201;BME280;9226;47.858;9.594;2023-04-26T11:47:36;95110.50;;;20.36;33.79
18201;BME280;9226;47.858;9.594;2023-04-26T11:50:02;95108.94;;;20.49;33.84
18201;BME280;9226;47.858;9.594;2023-04-26T11:52:28;95117.22;;;20.47;34.21
18201;BME280;9226;47.858;9.594;2023-04-26T11:55:04;95106.41;;;20.19;32.04
18201;BME280;9226;47.858;9.594;2023-04-26T11:57:33;95113.50;;;19.83;33.01
18201;BME280;9226;47.858;9.594;2023-04-26T12:00:12;95100.81;;;20.20;33.53
18201;BME280;9226;47.858;9.594;2023-04-26T12:02:42;95108.84;;;20.14;33.82
18201;BME280;9226;47.858;9.594;2023-04-26T12:05:08;95105.25;;;19.70;33.77
18201;BME280;9226;47.858;9.594;2023-04-26T12:07:35;95104.47;;;19.91;34.24
18201;BME280;9226;47.858;9.594;2023-04-26T12:10:17;95101.25;;;19.81;31.26
18201;BME280;9226;47.858;9.594;2023-04-26T12:12:47;95103.97;;;19.66;30.67
18201;BME280;9226;47.858;9.594;2023-04-26T12:15:17;95106.97;;;19.56;32.37
18201;BME280;9226;47.858;9.594;2023-04-26T12:20:31;95112.53;;;19.55;34.19
18201;BME280;9226;47.858;9.594;2023-04-26T12:23:02;95106.44;;;19.16;33.22
18201;BME280;9226;47.858;9.594;2023-04-26T12:25:28;95106.09;;;19.56;34.25
18201;BME280;9226;47.858;9.594;2023-04-26T12:27:54;95110.09;;;19.60;34.18
18201;BME280;9226;47.858;9.594;2023-04-26T12:30:19;95103.94;;;19.00;33.18
18201;BME280;9226;47.858;9.594;2023-04-26T12:32:45;95100.41;;;19.29;33.98
18201;BME280;9226;47.858;9.594;2023-04-26T12:35:11;95096.84;;;19.43;34.37
18201;BME280;9226;47.858;9.594;2023-04-26T12:37:36;95088.34;;;19.25;34.41
18201;BME280;9226;47.858;9.594;2023-04-26T12:40:02;95088.47;;;19.16;35.27
18201;BME280;9226;47.858;9.594;2023-04-26T12:42:27;95091.88;;;18.95;35.51
18201;BME280;9226;47.858;9.594;2023-04-26T12:44:53;95081.50;;;18.92;35.01
18201;BME280;9226;47.858;9.594;2023-04-26T12:47:18;95089.84;;;19.12;35.32
18201;BME280;9226;47.858;9.594;2023-04-26T12:49:44;95094.22;;;19.13;34.79
18201;BME280;9226;47.858;9.594;2023-04-26T12:52:09;95084.81;;;19.24;34.89
18201;BME280;9226;47.858;9.594;2023-04-26T12:54:35;95088.25;;;19.33;34.65
18201;BME280;9226;47.858;9.594;2023-04-26T12:57:00;95081.19;;;19.32;34.87
18201;BME280;9226;47.858;9.594;2023-04-26T12:59:26;95084.63;;;19.26;34.67
18201;BME280;9226;47.858;9.594;2023-04-26T13:01:51;95089.28;;;19.17;33.74
18201;BME280;9226;47.858;9.594;2023-04-26T13:04:17;95096.00;;;18.83;33.15
18201;BME280;9226;47.858;9.594;2023-04-26T13:06:42;95084.91;;;18.71;33.28
18201;BME280;9226;47.858;9.594;2023-04-26T13:09:07;95087.31;;;17.90;33.91
18201;BME280;9226;47.858;9.594;2023-04-26T13:11:33;95087.88;;;18.23;34.19
18201;BME280;9226;47.858;9.594;2023-04-26T13:13:58;95076.16;;;18.16;34.11
18201;BME280;9226;47.858;9.594;2023-04-26T13:16:24;95069.47;;;18.12;34.82
18201;BME280;9226;47.858;9.594;2023-04-26T13:18:50;95068.44;;;17.98;34.53
18201;BME280;9226;47.858;9.594;2023-04-26T13:21:15;95069.84;;;17.86;34.30
18201;BME280;9226;47.858;9.594;2023-04-26T13:23:41;95072.66;;;17.93;34.49
18201;BME280;9226;47.858;9.594;2023-04-26T13:26:07;95076.03;;;17.86;34.33
18201;BME280;9226;47.858;9.594;2023-04-26T13:28:34;95072.44;;;17.71;34.69
18201;BME280;9226;47.858;9.594;2023-04-26T13:31:00;95064.72;;;17.13;34.81